sensor_id;sensor_type;location;lat;lon;timestamp;pressure;altitude;pressure_sealevel;temperature;humidity
69060;BME280;56135;37.534;-122.308;2023-03-01T00:01:36;100834.25;;;11.40;100.00
69060;BME280;56135;37.534;-122.308;2023-03-01T00:04:02;100840.06;;;11.03;100.00
69060;BME280;56135;37.534;-122.308;2023-03-01T00:06:28;100834.22;;;10.78;100.00
69060;BME280;56135;37.534;-122.308;2023-03-01T00:08:55;100827.28;;;10.67;100.00
69060;BME280;56135;37.534;-122.308;2023-03-01T00:11:29;100823.84;;;10.62;100.00
69060;BME280;56135;37.534;-122.308;2023-03-01T00:13:58;100826.41;;;10.68;100.00
69060;BME280;56135;37.534;-122.308;2023-03-01T00:16:30;100827.34;;;10.64;100.00
69060;BME280;56135;37.534;-122.308;2023-03-01T00:18:57;100828.41;;;10.48;100.00
69060;BME280;56135;37.534;-122.308;2023-03-01T00:21:24;100824.97;;;10.38;100.00
69060;BME280;56135;37.534;-122.308;2023-03-01T00:23:51;100826.63;;;10.48;100.00
69060;BME280;56135;37.534;-122.308;2023-03-01T00:26:18;100810.03;;;10.35;100.00
69060;BME280;56135;37.534;-122.308;2023-03-01T00:28:45;100799.53;;;10.29;100.00
69060;BME280;56135;37.534;-122.308;2023-03-01T00:31:18;100807.66;;;10.09;100.00
69060;BME280;56135;37.534;-122.308;2023-03-01T00:33:45;100822.72;;;9.96;100.00
69060;BME280;56135;37.534;-122.308;2023-03-01T00:36:14;100810.25;;;10.14;100.00
69060;BME280;56135;37.534;-122.308;2023-03-01T00:38:43;100810.31;;;10.09;100.00
69060;BME280;56135;37.534;-122.308;2023-03-01T00:41:15;100813.94;;;9.97;100.00
69060;BME280;56135;37.534;-122.308;2023-03-01T00:43:42;100807.81;;;9.92;100.00
69060;BME280;56135;37.534;-122.308;2023-03-01T00:46:11;100803.47;;;9.85;100.00
69060;BME280;56135;37.534;-122.308;2023-03-01T00:48:38;100801.81;;;9.72;100.00
69060;BME280;56135;37.534;-122.308;2023-03-01T00:51:27;100811.50;;;9.68;100.00
69060;BME280;56135;37.534;-122.308;2023-03-01T00:53:56;100810.66;;;9.66;100.00
69060;BME280;56135;37.534;-122.308;2023-03-01T00:56:23;100801.97;;;9.53;100.00
69060;BME280;56135;37.534;-122.308;2023-03-01T00:58:49;100794.13;;;9.44;100.00
69060;BME280;56135;37.534;-122.308;2023-03-01T01:01:23;100791.47;;;9.47;100.00
69060;BME280;56135;37.534;-122.308;2023-03-01T01:04:02;100792.41;;;9.38;100.00
69060;BME280;56135;37.534;-122.308;2023-03-01T01:06:41;100795.91;;;9.39;100.00
69060;BME280;56135;37.534;-122.308;2023-03-01T01:09:12;100795.91;;;9.40;100.00
69060;BME280;56135;37.534;-122.308;2023-03-01T01:11:49;100810.94;;;9.27;100.00
69060;BME280;56135;37.534;-122.308;2023-03-01T01:14:16;100810.00;;;9.34;100.00
69060;BME280;56135;37.534;-122.308;2023-03-01T01:16:43;100808.28;;;9.30;100.00
69060;BME280;56135;37.534;-122.308;2023-03-01T01:19:13;100814.50;;;9.20;100.00
69060;BME280;56135;37.534;-122.308;2023-03-01T01:21:39;100811.91;;;9.09;100.00
69060;BME280;56135;37.534;-122.308;2023-03-01T01:24:09;100818.94;;;9.12;100.00
69060;BME280;56135;37.534;-122.308;2023-03-01T01:26:35;100821.59;;;9.06;100.00
69060;BME280;56135;37.534;-122.308;2023-03-01T01:29:03;100807.63;;;8.93;100.00
69060;BME280;56135;37.534;-122.308;2023-03-01T01:31:31;100807.69;;;8.83;100.00
69060;BME280;56135;37.534;-122.308;2023-03-01T01:33:59;100802.41;;;8.85;100.00
69060;BME280;56135;37.534;-122.308;2023-03-01T01:36:26;100809.47;;;8.77;100.00
69060;BME280;56135;37.534;-122.308;2023-03-01T01:38:52;100803.28;;;8.81;100.00
69060;BME280;56135;37.534;-122.308;2023-03-01T01:41:19;100801.56;;;8.71;100.00
69060;BME280;56135;37.534;-122.308;2023-03-01T01:44:19;100804.22;;;8.69;100.00
69060;BME280;56135;37.534;-122.308;2023-03-01T01:46:55;100801.59;;;8.66;100.00
69060;BME280;56135;37.534;-122.308;2023-03-01T01:49:33;100805.13;;;8.62;100.00
69060;BME280;56135;37.534;-122.308;2023-03-01T01:52:06;100806.03;;;8.61;100.00
69060;BME280;56135;37.534;-122.308;2023-03-01T01:57:18;100816.56;;;8.56;100.00
69060;BME280;56135;37.534;-122.308;2023-03-01T01:59:50;100824.44;;;8.62;100.00
69060;BME280;56135;37.534;-122.308;2023-03-01T02:02:18;100813.03;;;8.57;100.00
69060;BME280;56135;37.534;-122.308;2023-03-01T02:04:44;100822.69;;;8.54;100.00
69060;BME280;56135;37.534;-122.308;2023-03-01T02:07:16;100819.19;;;8.41;100.00
69060;BME280;56135;37.534;-122.308;2023-03-01T02:09:48;100809.53;;;8.43;100.00
69060;BME280;56135;37.534;-122.308;2023-03-01T02:12:16;100796.41;;;8.50;100.00
69060;BME280;56135;37.534;-122.308;2023-03-01T02:14:43;100785.84;;;8.47;100.00
69060;BME280;56135;37.534;-122.308;2023-03-01T02:17:15;100797.25;;;8.45;100.00
69060;BME280;56135;37.534;-122.308;2023-03-01T02:20:17;100790.22;;;8.41;100.00
69060;BME280;56135;37.534;-122.308;2023-03-01T02:22:46;100789.38;;;8.32;100.00
69060;BME280;56135;37.534;-122.308;2023-03-01T02:30:30;100788.50;;;8.27;100.00
69060;BME280;56135;37.534;-122.308;2023-03-01T02:32:58;100788.53;;;8.19;100.00
69060;BME280;56135;37.534;-122.308;2023-03-01T02:35:34;100789.44;;;8.20;100.00
69060;BME280;56135;37.534;-122.308;2023-03-01T02:38:03;100792.06;;;8.17;100.00
69060;BME280;56135;37.534;-122.308;2023-03-01T02:40:34;100793.84;;;8.12;100.00
69060;BME280;56135;37.534;-122.308;2023-03-01T02:43:02;100798.22;;;8.07;100.00
69060;BME280;56135;37.534;-122.308;2023-03-01T02:45:30;100797.34;;;8.05;100.00
69060;BME280;56135;37.534;-122.308;2023-03-01T02:47:57;100806.09;;;8.04;100.00
69060;BME280;56135;37.534;-122.308;2023-03-01T02:53:13;100795.63;;;7.88;100.00
69060;BME280;56135;37.534;-122.308;2023-03-01T02:55:41;100785.06;;;7.85;100.00
69060;BME280;56135;37.534;-122.308;2023-03-01T02:58:28;100776.34;;;7.74;100.00
69060;BME280;56135;37.534;-122.308;2023-03-01T03:04:28;100795.59;;;7.45;100.00
69060;BME280;56135;37.534;-122.308;2023-03-01T03:06:54;100787.72;;;7.42;100.00
69060;BME280;56135;37.534;-122.308;2023-03-01T03:09:24;100780.69;;;7.34;100.00
69060;BME280;56135;37.534;-122.308;2023-03-01T03:11:50;100781.59;;;7.33;100.00
69060;BME280;56135;37.534;-122.308;2023-03-01T03:14:16;100790.34;;;7.26;100.00
69060;BME280;56135;37.534;-122.308;2023-03-01T03:16:45;100784.19;;;7.16;100.00
69060;BME280;56135;37.534;-122.308;2023-03-01T03:19:12;100785.94;;;7.14;100.00
69060;BME280;56135;37.534;-122.308;2023-03-01T03:21:38;100784.19;;;7.18;100.00
69060;BME280;56135;37.534;-122.308;2023-03-01T03:24:04;100790.31;;;7.14;100.00
69060;BME280;56135;37.534;-122.308;2023-03-01T03:26:31;100785.94;;;7.14;100.00
69060;BME280;56135;37.534;-122.308;2023-03-01T03:28:58;100781.56;;;7.06;100.00
69060;BME280;56135;37.534;-122.308;2023-03-01T03:31:24;100790.28;;;6.95;100.00
69060;BME280;56135;37.534;-122.308;2023-03-01T03:33:50;100792.88;;;6.86;100.00
69060;BME280;56135;37.534;-122.308;2023-03-01T03:36:20;100800.75;;;6.88;100.00
69060;BME280;56135;37.534;-122.308;2023-03-01T03:38:46;100798.13;;;6.86;100.00
69060;BME280;56135;37.534;-122.308;2023-03-01T03:41:12;100798.97;;;6.79;100.00
69060;BME280;56135;37.534;-122.308;2023-03-01T03:43:40;100795.47;;;6.80;100.00
69060;BME280;56135;37.534;-122.308;2023-03-01T03:46:09;100796.31;;;6.74;100.00
69060;BME280;56135;37.534;-122.308;2023-03-01T03:48:43;100791.03;;;6.70;100.00
69060;BME280;56135;37.534;-122.308;2023-03-01T05:16:21;100809.81;;;5.87;100.00
69060;BME280;56135;37.534;-122.308;2023-03-01T05:18:47;100812.41;;;5.85;100.00
69060;BME280;56135;37.534;-122.308;2023-03-01T05:21:16;100811.44;;;5.77;100.00
69060;BME280;56135;37.534;-122.308;2023-03-01T05:23:43;100815.88;;;5.81;100.00
69060;BME280;56135;37.534;-122.308;2023-03-01T05:26:09;100820.22;;;5.80;100.00
69060;BME280;56135;37.534;-122.308;2023-03-01T05:28:38;100820.22;;;5.79;100.00
69060;BME280;56135;37.534;-122.308;2023-03-01T05:31:05;100826.31;;;5.78;100.00
69060;BME280;56135;37.534;-122.308;2023-03-01T05:33:40;100834.16;;;5.75;100.00
69060;BME280;56135;37.534;-122.308;2023-03-01T05:36:09;100835.03;;;5.74;100.00
69060;BME280;56135;37.534;-122.308;2023-03-01T05:38:36;100830.63;;;5.68;100.00
69060;BME280;56135;37.534;-122.308;2023-03-01T05:41:02;100830.63;;;5.70;100.00
69060;BME280;56135;37.534;-122.308;2023-03-01T05:43:32;100826.28;;;5.72;100.00
69060;BME280;56135;37.534;-122.308;2023-03-01T05:46:01;100821.91;;;5.72;100.00
69060;BME280;56135;37.534;-122.308;2023-03-01T05:48:27;100823.63;;;5.70;100.00
69060;BME280;56135;37.534;-122.308;2023-03-01T05:50:54;100820.06;;;5.62;100.00
69060;BME280;56135;37.534;-122.308;2023-03-01T05:53:20;100824.47;;;5.66;100.00
69060;BME280;56135;37.534;-122.308;2023-03-01T05:55:46;100814.84;;;5.65;100.00
69060;BME280;56135;37.534;-122.308;2023-03-01T05:58:15;100804.34;;;5.62;100.00
69060;BME280;56135;37.534;-122.308;2023-03-01T06:00:44;100794.69;;;5.55;100.00
69060;BME280;56135;37.534;-122.308;2023-03-01T06:03:12;100803.34;;;5.46;100.00
69060;BME280;56135;37.534;-122.308;2023-03-01T06:05:39;100793.72;;;5.45;100.00
69060;BME280;56135;37.534;-122.308;2023-03-01T06:08:05;100783.22;;;5.43;100.00
69060;BME280;56135;37.534;-122.308;2023-03-01T06:10:32;100763.19;;;5.45;100.00
69060;BME280;56135;37.534;-122.308;2023-03-01T06:12:58;100752.69;;;5.44;100.00
69060;BME280;56135;37.534;-122.308;2023-03-01T06:15:25;100757.03;;;5.42;100.00
69060;BME280;56135;37.534;-122.308;2023-03-01T06:17:53;100756.94;;;5.35;100.00
69060;BME280;56135;37.534;-122.308;2023-03-01T06:20:24;100766.50;;;5.30;100.00
69060;BME280;56135;37.534;-122.308;2023-03-01T06:22:51;100778.75;;;5.30;100.00
69060;BME280;56135;37.534;-122.308;2023-03-01T06:25:20;100777.03;;;5.32;100.00
69060;BME280;56135;37.534;-122.308;2023-03-01T06:27:47;100769.19;;;5.33;100.00
69060;BME280;56135;37.534;-122.308;2023-03-01T06:30:16;100755.16;;;5.30;100.00
69060;BME280;56135;37.534;-122.308;2023-03-01T06:32:43;100755.19;;;5.31;100.00
69060;BME280;56135;37.534;-122.308;2023-03-01T06:35:15;100753.47;;;5.33;100.00
69060;BME280;56135;37.534;-122.308;2023-03-01T06:38:18;100763.97;;;5.37;100.00
69060;BME280;56135;37.534;-122.308;2023-03-01T06:41:24;100771.81;;;5.38;100.00
69060;BME280;56135;37.534;-122.308;2023-03-01T06:43:50;100777.06;;;5.40;100.00
69060;BME280;56135;37.534;-122.308;2023-03-01T06:46:16;100777.13;;;5.43;100.00
69060;BME280;56135;37.534;-122.308;2023-03-01T06:48:42;100771.03;;;5.47;100.00
69060;BME280;56135;37.534;-122.308;2023-03-01T06:51:09;100770.13;;;5.45;100.00
69060;BME280;56135;37.534;-122.308;2023-03-01T06:53:35;100767.50;;;5.40;100.00
69060;BME280;56135;37.534;-122.308;2023-03-01T06:56:01;100757.84;;;5.34;100.00
69060;BME280;56135;37.534;-122.308;2023-03-01T06:58:28;100762.16;;;5.29;100.00
69060;BME280;56135;37.534;-122.308;2023-03-01T07:00:54;100757.75;;;5.25;100.00
69060;BME280;56135;37.534;-122.308;2023-03-01T07:03:20;100756.78;;;5.15;100.00
69060;BME280;56135;37.534;-122.308;2023-03-01T07:05:49;100762.84;;;5.13;100.00
69060;BME280;56135;37.534;-122.308;2023-03-01T07:08:17;100760.22;;;5.11;100.00
69060;BME280;56135;37.534;-122.308;2023-03-01T07:10:43;100770.72;;;5.11;100.00
69060;BME280;56135;37.534;-122.308;2023-03-01T07:13:09;100781.09;;;5.02;100.00
69060;BME280;56135;37.534;-122.308;2023-03-01T07:15:36;100781.16;;;5.08;100.00
69060;BME280;56135;37.534;-122.308;2023-03-01T07:18:02;100782.81;;;5.00;100.00
69060;BME280;56135;37.534;-122.308;2023-03-01T07:20:28;100787.13;;;4.95;100.00
69060;BME280;56135;37.534;-122.308;2023-03-01T07:22:55;100772.28;;;4.92;100.00
69060;BME280;56135;37.534;-122.308;2023-03-01T07:25:24;100762.66;;;4.91;100.00
69060;BME280;56135;37.534;-122.308;2023-03-01T07:27:51;100759.09;;;4.86;100.00
69060;BME280;56135;37.534;-122.308;2023-03-01T07:30:19;100759.00;;;4.75;100.00
69060;BME280;56135;37.534;-122.308;2023-03-01T07:33:06;100759.84;;;4.76;100.00
69060;BME280;56135;37.534;-122.308;2023-03-01T07:35:33;100763.22;;;4.65;100.00
69060;BME280;56135;37.534;-122.308;2023-03-01T07:37:59;100755.25;;;4.56;100.00
69060;BME280;56135;37.534;-122.308;2023-03-01T07:40:26;100749.06;;;4.48;100.00
69060;BME280;56135;37.534;-122.308;2023-03-01T07:42:58;100748.09;;;4.40;100.00
69060;BME280;56135;37.534;-122.308;2023-03-01T07:45:25;100763.69;;;4.33;100.00
69060;BME280;56135;37.534;-122.308;2023-03-01T07:47:52;100781.97;;;4.30;100.00
69060;BME280;56135;37.534;-122.308;2023-03-01T07:50:19;100804.69;;;4.33;100.00
69060;BME280;56135;37.534;-122.308;2023-03-01T07:52:46;100798.59;;;4.32;100.00
69060;BME280;56135;37.534;-122.308;2023-03-01T07:55:13;100790.66;;;4.26;100.00
69060;BME280;56135;37.534;-122.308;2023-03-01T07:57:39;100787.09;;;4.21;100.00
69060;BME280;56135;37.534;-122.308;2023-03-01T08:00:07;100788.00;;;4.23;100.00
69060;BME280;56135;37.534;-122.308;2023-03-01T08:02:33;100781.72;;;4.12;100.00
69060;BME280;56135;37.534;-122.308;2023-03-01T08:04:59;100774.72;;;4.09;100.00
69060;BME280;56135;37.534;-122.308;2023-03-01T08:07:25;100771.09;;;3.98;100.00
69060;BME280;56135;37.534;-122.308;2023-03-01T08:09:52;100767.66;;;4.02;100.00
69060;BME280;56135;37.534;-122.308;2023-03-01T08:12:18;100779.91;;;4.05;100.00
69060;BME280;56135;37.534;-122.308;2023-03-01T08:14:44;100779.72;;;3.94;100.00
69060;BME280;56135;37.534;-122.308;2023-03-01T08:17:13;100786.66;;;3.92;100.00
69060;BME280;56135;37.534;-122.308;2023-03-01T08:19:40;100789.25;;;3.90;100.00
69060;BME280;56135;37.534;-122.308;2023-03-01T08:22:06;100788.31;;;3.87;100.00
69060;BME280;56135;37.534;-122.308;2023-03-01T08:24:32;100784.84;;;3.86;100.00
69060;BME280;56135;37.534;-122.308;2023-03-01T08:26:58;100790.94;;;3.87;100.00
69060;BME280;56135;37.534;-122.308;2023-03-01T08:29:24;100791.75;;;3.82;100.00
69060;BME280;56135;37.534;-122.308;2023-03-01T08:31:51;100787.38;;;3.81;100.00
69060;BME280;56135;37.534;-122.308;2023-03-01T08:34:18;100787.31;;;3.77;100.00
69060;BME280;56135;37.534;-122.308;2023-03-01T08:36:45;100792.44;;;3.71;100.00
69060;BME280;56135;37.534;-122.308;2023-03-01T08:39:14;100782.75;;;3.63;100.00
69060;BME280;56135;37.534;-122.308;2023-03-01T08:41:41;100791.38;;;3.59;100.00
69060;BME280;56135;37.534;-122.308;2023-03-01T08:44:09;100788.59;;;3.48;100.00
69060;BME280;56135;37.534;-122.308;2023-03-01T08:46:40;100785.09;;;3.48;100.00
69060;BME280;56135;37.534;-122.308;2023-03-01T08:49:12;100776.16;;;3.33;100.00
69060;BME280;56135;37.534;-122.308;2023-03-01T08:51:39;100779.59;;;3.31;100.00
69060;BME280;56135;37.534;-122.308;2023-03-01T08:54:06;100783.03;;;3.28;100.00
69060;BME280;56135;37.534;-122.308;2023-03-01T08:56:33;100783.03;;;3.28;100.00
69060;BME280;56135;37.534;-122.308;2023-03-01T08:58:59;100786.47;;;3.27;100.00
69060;BME280;56135;37.534;-122.308;2023-03-01T09:01:25;100783.00;;;3.27;100.00
69060;BME280;56135;37.534;-122.308;2023-03-01T09:03:52;100787.31;;;3.25;100.00
69060;BME280;56135;37.534;-122.308;2023-03-01T09:06:18;100797.00;;;3.30;100.00
69060;BME280;56135;37.534;-122.308;2023-03-01T09:08:47;100793.50;;;3.31;100.00
69060;BME280;56135;37.534;-122.308;2023-03-01T09:11:17;100788.28;;;3.31;100.00
69060;BME280;56135;37.534;-122.308;2023-03-01T09:13:45;100790.06;;;3.32;100.00
69060;BME280;56135;37.534;-122.308;2023-03-01T09:16:13;100788.25;;;3.28;100.00
69060;BME280;56135;37.534;-122.308;2023-03-01T09:18:40;100782.91;;;3.22;100.00
69060;BME280;56135;37.534;-122.308;2023-03-01T09:21:07;100783.72;;;3.20;100.00
69060;BME280;56135;37.534;-122.308;2023-03-01T09:23:41;100779.34;;;3.17;100.00
69060;BME280;56135;37.534;-122.308;2023-03-01T09:26:10;100782.72;;;3.13;100.00
69060;BME280;56135;37.534;-122.308;2023-03-01T09:28:37;100778.41;;;3.12;100.00
69060;BME280;56135;37.534;-122.308;2023-03-01T09:31:03;100776.75;;;3.17;100.00
69060;BME280;56135;37.534;-122.308;2023-03-01T09:33:31;100777.56;;;3.14;100.00
69060;BME280;56135;37.534;-122.308;2023-03-01T09:35:58;100786.34;;;3.20;100.00
69060;BME280;56135;37.534;-122.308;2023-03-01T09:38:25;100777.63;;;3.19;100.00
69060;BME280;56135;37.534;-122.308;2023-03-01T09:40:51;100776.75;;;3.17;100.00
69060;BME280;56135;37.534;-122.308;2023-03-01T09:44:08;100781.03;;;3.13;100.00
69060;BME280;56135;37.534;-122.308;2023-03-01T09:46:10;100779.25;;;3.12;100.00
69060;BME280;56135;37.534;-122.308;2023-03-01T09:48:52;100776.66;;;3.12;100.00
69060;BME280;56135;37.534;-122.308;2023-03-01T09:51:29;100770.47;;;3.09;100.00
69060;BME280;56135;37.534;-122.308;2023-03-01T09:53:57;100773.97;;;3.08;100.00
69060;BME280;56135;37.534;-122.308;2023-03-01T09:56:30;100779.13;;;3.06;100.00
69060;BME280;56135;37.534;-122.308;2023-03-01T10:09:30;100757.13;;;2.92;100.00
69060;BME280;56135;37.534;-122.308;2023-03-01T10:12:00;100757.09;;;2.90;100.00
69060;BME280;56135;37.534;-122.308;2023-03-01T10:14:51;100760.59;;;2.89;100.00
69060;BME280;56135;37.534;-122.308;2023-03-01T10:17:27;100759.72;;;2.92;100.00
69060;BME280;56135;37.534;-122.308;2023-03-01T10:20:14;100771.13;;;2.95;100.00
69060;BME280;56135;37.534;-122.308;2023-03-01T10:22:41;100765.19;;;3.03;100.00
69060;BME280;56135;37.534;-122.308;2023-03-01T10:25:13;100758.22;;;3.05;100.00
69060;BME280;56135;37.534;-122.308;2023-03-01T10:27:53;100758.47;;;3.17;100.00
69060;BME280;56135;37.534;-122.308;2023-03-01T10:30:39;100760.19;;;3.16;100.00
69060;BME280;56135;37.534;-122.308;2023-03-01T10:33:32;100761.16;;;3.23;100.00
69060;BME280;56135;37.534;-122.308;2023-03-01T10:35:58;100742.84;;;3.20;100.00
69060;BME280;56135;37.534;-122.308;2023-03-01T10:38:25;100746.34;;;3.21;100.00
69060;BME280;56135;37.534;-122.308;2023-03-01T10:41:00;100743.75;;;3.22;100.00
69060;BME280;56135;37.534;-122.308;2023-03-01T10:43:49;100741.94;;;3.20;100.00
69060;BME280;56135;37.534;-122.308;2023-03-01T10:49:17;100738.28;;;3.08;100.00
69060;BME280;56135;37.534;-122.308;2023-03-01T10:51:50;100741.88;;;3.13;100.00
69060;BME280;56135;37.534;-122.308;2023-03-01T10:54:25;100728.06;;;3.22;100.00
69060;BME280;56135;37.534;-122.308;2023-03-01T10:56:55;100734.22;;;3.24;100.00
69060;BME280;56135;37.534;-122.308;2023-03-01T10:59:32;100729.00;;;3.24;100.00
69060;BME280;56135;37.534;-122.308;2023-03-01T11:02:15;100722.84;;;3.22;100.00
69060;BME280;56135;37.534;-122.308;2023-03-01T11:07:48;100731.41;;;3.12;100.00
69060;BME280;56135;37.534;-122.308;2023-03-01T11:10:25;100736.63;;;3.12;100.00
69060;BME280;56135;37.534;-122.308;2023-03-01T11:12:53;100716.59;;;3.12;100.00
69060;BME280;56135;37.534;-122.308;2023-03-01T11:15:27;100726.22;;;3.15;100.00
69060;BME280;56135;37.534;-122.308;2023-03-01T11:17:56;100726.13;;;3.10;100.00
69060;BME280;56135;37.534;-122.308;2023-03-01T11:20:35;100725.25;;;3.08;100.00
69060;BME280;56135;37.534;-122.308;2023-03-01T11:23:12;100724.25;;;3.00;100.00
69060;BME280;56135;37.534;-122.308;2023-03-01T11:25:43;100717.22;;;2.96;100.00
69060;BME280;56135;37.534;-122.308;2023-03-01T11:28:14;100721.47;;;2.92;100.00
69060;BME280;56135;37.534;-122.308;2023-03-01T11:30:59;100717.13;;;2.93;100.00
69060;BME280;56135;37.534;-122.308;2023-03-01T11:33:49;100716.16;;;2.88;100.00
69060;BME280;56135;37.534;-122.308;2023-03-01T11:36:41;100719.69;;;2.88;100.00
69060;BME280;56135;37.534;-122.308;2023-03-01T11:42:20;100707.44;;;2.84;100.00
69060;BME280;56135;37.534;-122.308;2023-03-01T11:44:52;100716.06;;;2.80;100.00
69060;BME280;56135;37.534;-122.308;2023-03-01T11:50:35;100715.81;;;2.67;100.00
69060;BME280;56135;37.534;-122.308;2023-03-01T11:55:55;100738.28;;;2.61;100.00
69060;BME280;56135;37.534;-122.308;2023-03-01T12:04:14;100745.25;;;2.60;100.00
69060;BME280;56135;37.534;-122.308;2023-03-01T12:09:49;100749.66;;;2.64;100.00
69060;BME280;56135;37.534;-122.308;2023-03-01T12:15:24;100756.19;;;2.88;100.00
69060;BME280;56135;37.534;-122.308;2023-03-01T12:40:20;100814.28;;;2.79;100.00
69060;BME280;56135;37.534;-122.308;2023-03-01T12:43:26;100814.13;;;2.72;100.00
69060;BME280;56135;37.534;-122.308;2023-03-01T12:46:10;100818.50;;;2.73;100.00
69060;BME280;56135;37.534;-122.308;2023-03-01T12:51:14;100819.31;;;2.70;100.00
69060;BME280;56135;37.534;-122.308;2023-03-01T12:53:50;100831.56;;;2.73;100.00
69060;BME280;56135;37.534;-122.308;2023-03-01T12:56:21;100829.00;;;2.76;100.00
69060;BME280;56135;37.534;-122.308;2023-03-01T12:59:01;100817.69;;;2.75;100.00
69060;BME280;56135;37.534;-122.308;2023-03-01T13:01:38;100828.88;;;2.70;100.00
69060;BME280;56135;37.534;-122.308;2023-03-01T13:10:11;100829.69;;;2.65;100.00
69060;BME280;56135;37.534;-122.308;2023-03-01T13:12:52;100828.69;;;2.60;100.00
69060;BME280;56135;37.534;-122.308;2023-03-01T13:20:32;100848.31;;;2.43;100.00
69060;BME280;56135;37.534;-122.308;2023-03-01T13:23:03;100863.88;;;2.40;100.00
69060;BME280;56135;37.534;-122.308;2023-03-01T13:25:30;100870.91;;;2.44;100.00
69060;BME280;56135;37.534;-122.308;2023-03-01T13:31:02;100895.13;;;2.38;100.00
69060;BME280;56135;37.534;-122.308;2023-03-01T13:35:58;100905.53;;;2.37;100.00
69060;BME280;56135;37.534;-122.308;2023-03-01T13:41:17;100910.81;;;2.40;100.00
69060;BME280;56135;37.534;-122.308;2023-03-01T13:43:59;100911.66;;;2.39;100.00
69060;BME280;56135;37.534;-122.308;2023-03-01T13:46:26;100922.22;;;2.45;100.00
69060;BME280;56135;37.534;-122.308;2023-03-01T13:48:55;100924.09;;;2.50;100.00
69060;BME280;56135;37.534;-122.308;2023-03-01T13:51:26;100925.91;;;2.53;100.00
69060;BME280;56135;37.534;-122.308;2023-03-01T13:53:55;100924.03;;;2.47;100.00
69060;BME280;56135;37.534;-122.308;2023-03-01T13:56:28;100928.25;;;2.42;100.00
69060;BME280;56135;37.534;-122.308;2023-03-01T13:59:23;100925.78;;;2.47;100.00
69060;BME280;56135;37.534;-122.308;2023-03-01T14:01:56;100933.56;;;2.45;100.00
69060;BME280;56135;37.534;-122.308;2023-03-01T14:04:29;100940.47;;;2.43;100.00
69060;BME280;56135;37.534;-122.308;2023-03-01T14:07:19;100951.72;;;2.42;100.00
69060;BME280;56135;37.534;-122.308;2023-03-01T14:09:48;100952.50;;;2.38;100.00
69060;BME280;56135;37.534;-122.308;2023-03-01T14:20:33;100978.06;;;2.16;100.00
69060;BME280;56135;37.534;-122.308;2023-03-01T14:23:11;100978.84;;;2.14;100.00
69060;BME280;56135;37.534;-122.308;2023-03-01T14:25:39;100981.34;;;2.11;100.00
69060;BME280;56135;37.534;-122.308;2023-03-01T14:30:44;100990.66;;;1.99;100.00
69060;BME280;56135;37.534;-122.308;2023-03-01T14:33:31;100994.78;;;1.91;100.00
69060;BME280;56135;37.534;-122.308;2023-03-01T14:36:13;100998.00;;;1.82;100.00
69060;BME280;56135;37.534;-122.308;2023-03-01T14:38:40;101002.94;;;1.72;100.00
69060;BME280;56135;37.534;-122.308;2023-03-01T14:41:08;101003.69;;;1.67;100.00
69060;BME280;56135;37.534;-122.308;2023-03-01T14:43:37;101004.41;;;1.62;100.00
69060;BME280;56135;37.534;-122.308;2023-03-01T14:46:06;101007.63;;;1.53;100.00
69060;BME280;56135;37.534;-122.308;2023-03-01T14:48:32;101011.75;;;1.45;100.00
69060;BME280;56135;37.534;-122.308;2023-03-01T14:50:58;101009.88;;;1.41;100.00
69060;BME280;56135;37.534;-122.308;2023-03-01T14:53:28;101015.09;;;1.41;100.00
69060;BME280;56135;37.534;-122.308;2023-03-01T14:55:59;101018.34;;;1.33;100.00
69060;BME280;56135;37.534;-122.308;2023-03-01T14:58:32;101025.25;;;1.31;100.00
69060;BME280;56135;37.534;-122.308;2023-03-01T15:01:04;101022.47;;;1.27;100.00
69060;BME280;56135;37.534;-122.308;2023-03-01T15:03:37;101030.25;;;1.25;100.00
69060;BME280;56135;37.534;-122.308;2023-03-01T15:06:05;101038.84;;;1.23;100.00
69060;BME280;56135;37.534;-122.308;2023-03-01T15:08:33;101052.66;;;1.20;100.00
69060;BME280;56135;37.534;-122.308;2023-03-01T15:13:30;101062.03;;;1.15;100.00
69060;BME280;56135;37.534;-122.308;2023-03-01T15:16:12;101075.03;;;1.15;100.00
69060;BME280;56135;37.534;-122.308;2023-03-01T15:18:51;101072.34;;;1.12;100.00
69060;BME280;56135;37.534;-122.308;2023-03-01T15:21:24;101077.56;;;1.12;100.00
69060;BME280;56135;37.534;-122.308;2023-03-01T15:23:55;101079.91;;;1.31;100.00
69060;BME280;56135;37.534;-122.308;2023-03-01T15:26:42;101087.88;;;1.38;100.00
69060;BME280;56135;37.534;-122.308;2023-03-01T15:29:19;101094.03;;;1.40;100.00
69060;BME280;56135;37.534;-122.308;2023-03-01T15:32:02;101105.56;;;1.48;100.00
69060;BME280;56135;37.534;-122.308;2023-03-01T15:34:36;101109.97;;;1.50;100.00
69060;BME280;56135;37.534;-122.308;2023-03-01T15:37:05;101114.47;;;1.56;100.00
69060;BME280;56135;37.534;-122.308;2023-03-01T15:39:52;101117.50;;;1.70;100.00
69060;BME280;56135;37.534;-122.308;2023-03-01T15:47:56;101116.72;;;2.37;100.00
69060;BME280;56135;37.534;-122.308;2023-03-01T15:50:33;101117.19;;;2.54;100.00
69060;BME280;56135;37.534;-122.308;2023-03-01T15:53:01;101124.59;;;2.72;100.00
69060;BME280;56135;37.534;-122.308;2023-03-01T15:55:31;101136.38;;;2.91;100.00
69060;BME280;56135;37.534;-122.308;2023-03-01T15:58:02;101139.63;;;3.17;100.00
69060;BME280;56135;37.534;-122.308;2023-03-01T16:00:29;101139.19;;;3.37;100.00